| Record Date MM/DD/YYYY | Record Julian Date NNN day of the year | Air Temperature Max (Degrees Fahrenheit F) | Time Max Air Temperature HH:MM:SS This is the time of max air temperature standard time. | Air Temperature Min (Degrees Fahrenheit F) | Time Min Air Temperature HH:MM:SS This is the time of min air temperature standard time. | Air Temperature Observed (Degrees Fahrenheit F) This is an instantaneous reading for air temperature at 7:00:00 standard time. | Relative Humidity Max (Percent) | Time Max Relative Humidity HH:MM:SS This is the time of max relative humidity standard time. | Relative Humidity Min (Percent) | Time Min Relative Humidity HH:MM:SS This is the time of min relative humidity standard time. | Relative Humidity Observed (Percent) This is an instantaneous reading at 7:00:00 standard time. | Precipitation (Inches n.nn) total rain fall that occurred for the day. | Pan Evaporation (Inches n.nn) total evaporation that occured for the day. | Wind Run (Miles) Wind travel for the day. | Wind Speed (Miles Per Hour) Resultant / Average speed for the day. | Wind Direction (Degrees) Resultant Direction for the day | Solar Radiation (Langley's) that occurred for the day. | Soil Temperature Max at 2 inch depth (Degrees Fahrenheit F) that occurred during the day. | Time Max Soil temperature at 2 inches HH:MM:SS This is the time of max 2 inch soil temperature standard time. | Soil Temperature Min at 2 inch depth (Degrees Fahrenheit F) that occurred during the day. | Time Min Soil temperature at 2 inches HH:MM:SS This is the time of min 2 inch soil temperature standard time. | Soil Temperature Observed at 2 inch depth (Degrees Fahrenheit F) This is an instantaneous reading 2 inch soil temperature at 7:00:00 standard time. | Soil Temperature Max at 4 inch depth (Degrees Fahrenheit F) that occurred during the day. | Time Max Soil temperature at 4 inches HH:MM:SS This is the time of max 4 inch soil temperature standard time. | Soil Temperature Min at 4 inch depth (Degrees Fahrenheit F) that occurred during the day. | Time Min Soil temperature at 4 inches HH:MM:SS This is the time of min 4 inch soil temperature standard time. | Soil Temperature Observed at 4 inch depth (Degrees Fahrenheit F) This is an instantaneous reading 4 inch soil temperature at 7:00:00 standard time. | DD50 Degree Days 50 Fahrenheit. | Adjusted DD50 Degree Days 50 Fahrenheit adjusted for latitude. | DD60 Degree Days 60 Fahrenheit. |
|---|---|---|---|---|---|---|---|---|---|---|---|---|---|---|---|---|---|---|---|---|---|---|---|---|---|---|---|---|---|---|
| 04/07/2026 | 97 | 77 | 14:57:00 | 2:34:05 | 100 | 2:57:03 | 2:34:05 | 0 | 0 | 1.06 | 0 | |||||||||||||||||||
| 04/08/2026 | 98 | 77 | 16:01:05 | 4:42:02 | 98 | 4:22:01 | 4:42:02 | 0 | 0 | 1.09 | 0 | |||||||||||||||||||
| 04/09/2026 | 99 | 66 | 19:14:02 | 17:59:02 | 72 | 19:14:02 | 17:59:02 | 0 | 0 | 1.12 | 0 | |||||||||||||||||||
| 04/10/2026 | 100 | 54 | 7:22:01 | 0:31:01 | 12 | 13:24:03 | 0:31:01 | 0 | 0 | 1.15 | 0 | |||||||||||||||||||
| 04/11/2026 | 101 | 82 | 11:55:02 | 7:54:01 | 48 | 11:55:02 | 7:54:01 | 0 | 0 | 1.18 | 0 | |||||||||||||||||||
| 04/12/2026 | 102 | 54 | 1:59:03 | 7:12:05 | 0 | 1:59:03 | 7:12:05 | 0 | 0 | 1.21 | 0 | |||||||||||||||||||
| 04/13/2026 | 103 | 54 | 2:44:01 | 6:55:04 | 12 | 7:15:03 | 6:55:04 | 0 | 0 | 1.24 | 0 | |||||||||||||||||||
| 04/14/2026 | 104 | 54 | 3:31:02 | 5:07:02 | 5:07:02 | 5:07:02 | 0 | 0 | 1.27 | 0 | ||||||||||||||||||||
| 04/15/2026 | 105 | 54 | 2:07:01 | 8:32:01 | 0 | 4:34:02 | 17:41:05 | 0 | 0 | 1.29 | 0 | |||||||||||||||||||
| 04/16/2026 | 106 | 54 | 3:59:03 | 0:59:01 | 0 | 11:13:00 | 0:59:01 | 0 | 0 | 1.32 | 0 | |||||||||||||||||||
| 04/17/2026 | 107 | 0:00:00 | 0 | 1.35 | 0 | |||||||||||||||||||||||||
| 04/18/2026 | 108 | 54 | 19:09:02 | 54 | 19:09:02 | 0:00:00 | 4 | 5.38 | 0 | |||||||||||||||||||||
| 04/19/2026 | 109 | 54 | 10:51:02 | 54 | 10:51:02 | 0:00:00 | 4 | 5.4 | 0 | |||||||||||||||||||||
| 04/20/2026 | 110 | 54 | 0:07:05 | 54 | 0:07:05 | 0:00:00 | 4 | 5.43 | 0 | |||||||||||||||||||||
| 04/21/2026 | 111 | 54 | 3:19:04 | 54 | 3:19:04 | 0:00:00 | 4 | 5.46 | 0 | |||||||||||||||||||||
| 04/22/2026 | 112 | 54 | 6:48:00 | 54 | 6:48:00 | 0:00:00 | 4 | 5.48 | 0 | |||||||||||||||||||||
| 04/23/2026 | 113 | 0:00:00 | 0 | 1.51 | 0 | |||||||||||||||||||||||||
| 04/24/2026 | 114 | 54 | 2:47:00 | 54 | 2:47:00 | 0:00:00 | 4 | 5.54 | 0 | |||||||||||||||||||||
| 04/25/2026 | 115 | 54 | 4:26:00 | 54 | 4:26:00 | 0 | 8:13:05 | 0 | 8:13:05 | 0.64 | 4 | 5.56 | 0 | |||||||||||||||||
| 04/26/2026 | 116 | 85 | 14:29:03 | 12:29:00 | 94 | 20:38:04 | 12:29:00 | 1.56 | 0 | 1.58 | 0 | |||||||||||||||||||
| 04/27/2026 | 117 | 87 | 13:10:02 | 1:02:01 | 74 | 98 | 3:04:01 | 1:02:01 | 90 | 0 | 0 | 1.61 | 0 | |||||||||||||||||
| 04/28/2026 | 118 | 0:00:01 | 0:00:01 | -148 | 0:00:01 | 0:00:01 | -100 | 0 | 0 | 1.63 | 0 | |||||||||||||||||||
| 04/29/2026 | 119 | 0:00:01 | 0:00:01 | -148 | 0:00:01 | 0:00:01 | -100 | 2.94 | 0 | 1.66 | 0 | |||||||||||||||||||
| 04/30/2026 | 120 | 0:00:01 | 0:00:01 | -148 | 0:00:01 | 0:00:01 | -100 | 1.05 | 0 | 1.68 | 0 | |||||||||||||||||||
| 05/01/2026 | 121 | 0:00:01 | 0:00:01 | -148 | 0:00:01 | 0:00:01 | -100 | 0.91 | 0 | 1.7 | 0 | |||||||||||||||||||
| 05/02/2026 | 122 | 0:00:01 | 0:00:01 | -148 | 0:00:01 | 0:00:01 | -100 | 0.02 | 0 | 1.72 | 0 | |||||||||||||||||||
| 05/03/2026 | 123 | 0:00:01 | 0:00:01 | -148 | 0:00:01 | 0:00:01 | -100 | 0 | 0 | 1.74 | 0 | |||||||||||||||||||
| 05/04/2026 | 124 | 0:00:01 | 0:00:01 | -148 | 0:00:01 | 0:00:01 | -100 | 0 | 0 | 1.77 | 0 | |||||||||||||||||||
| 05/05/2026 | 125 | 0:00:01 | 0:00:01 | -148 | 0:00:01 | 0:00:01 | -100 | 0 | 0 | 1.79 | 0 | |||||||||||||||||||
| 05/06/2026 | 126 | 71 | 2:47:04 | 0:00:01 | -148 | 91 | 2:47:04 | 0:00:01 | -100 | 0.06 | 0 | 1.81 | 0 | |||||||||||||||||
| Average | 62.35 | 54 | 0 | 48.08 | 0 | 0 | 0.33 | 0 | 0 | 0 | 0 | 0 | 0 | 0 | 0 | 0.93 | 2.39 | 0 | ||||||||||||
| Total | 7.18 | 28 | 71.73 | 0 |